createdAt,value
2023-03-06T00:00:26.020Z,28.17
2023-03-06T00:02:53.031Z,23.15
2023-03-06T00:05:19.937Z,29.60
2023-03-06T00:07:46.493Z,25.70
2023-03-06T00:10:16.555Z,26.73
2023-03-06T00:12:43.126Z,24.02
2023-03-06T00:15:10.249Z,25.63
2023-03-06T00:17:37.627Z,29.38
2023-03-06T00:20:05.714Z,22.52
2023-03-06T00:22:32.314Z,26.13
2023-03-06T00:24:58.883Z,27.55
2023-03-06T00:27:26.175Z,26.55
2023-03-06T00:29:56.889Z,27.52
2023-03-06T00:32:24.266Z,28.77
2023-03-06T00:34:52.512Z,32.15
2023-03-06T00:37:19.938Z,33.60
2023-03-06T00:39:46.621Z,32.03
2023-03-06T00:42:13.259Z,37.28
2023-03-06T00:44:39.845Z,34.58
2023-03-06T00:47:06.717Z,33.83
2023-03-06T00:49:33.308Z,35.15
2023-03-06T00:52:00.023Z,33.95
2023-03-06T00:54:26.585Z,35.10
2023-03-06T00:56:53.165Z,32.67
2023-03-06T00:59:19.842Z,36.55
2023-03-06T01:01:46.517Z,37.10
2023-03-06T01:04:13.231Z,33.70
2023-03-06T01:06:39.918Z,33.35
2023-03-06T01:09:06.454Z,36.90
2023-03-06T01:11:33.037Z,33.58
2023-03-06T01:13:59.704Z,33.97
2023-03-06T01:16:26.308Z,33.15
2023-03-06T01:18:52.863Z,32.30
2023-03-06T01:21:20.054Z,31.02
2023-03-06T01:23:47.357Z,28.52
2023-03-06T01:26:14.099Z,32.17
2023-03-06T01:28:40.899Z,34.80
2023-03-06T01:31:08.906Z,33.40
2023-03-06T01:33:36.125Z,30.23
2023-03-06T01:36:11.112Z,35.92
2023-03-06T01:38:38.551Z,31.52
2023-03-06T01:41:06.026Z,36.53
2023-03-06T01:43:37.728Z,35.42
2023-03-06T01:46:22.486Z,32.35
2023-03-06T01:48:53.697Z,36.15
2023-03-06T01:51:20.900Z,37.95
2023-03-06T01:53:49.626Z,41.40
2023-03-06T01:56:16.437Z,41.60
2023-03-06T01:58:44.149Z,38.17
2023-03-06T02:01:12.901Z,34.40
2023-03-06T02:03:41.215Z,40.80
2023-03-06T02:06:08.346Z,34.95
2023-03-06T02:08:35.015Z,38.97
2023-03-06T02:11:37.134Z,40.45
2023-03-06T02:14:03.889Z,39.30
2023-03-06T02:16:34.523Z,35.65
2023-03-06T02:19:02.764Z,41.28
2023-03-06T02:21:34.180Z,32.47
2023-03-06T02:24:23.456Z,31.88
2023-03-06T02:26:51.874Z,26.40
2023-03-06T02:29:26.524Z,27.15
2023-03-06T02:31:53.203Z,26.58
2023-03-06T02:34:19.669Z,25.60
2023-03-06T02:36:50.538Z,21.45
2023-03-06T02:39:21.386Z,27.20
2023-03-06T02:41:48.007Z,28.67
2023-03-06T02:44:14.638Z,28.70
2023-03-06T02:46:41.151Z,28.35
2023-03-06T02:49:07.688Z,30.02
2023-03-06T02:51:34.621Z,27.88
2023-03-06T02:54:01.357Z,29.65
2023-03-06T02:56:27.968Z,29.70
2023-03-06T02:58:54.502Z,29.40
2023-03-06T03:01:21.172Z,27.35
2023-03-06T03:03:47.700Z,26.08
2023-03-06T03:06:14.358Z,25.13
2023-03-06T03:08:40.975Z,31.73
2023-03-06T03:11:09.099Z,30.58
2023-03-06T03:13:36.329Z,23.13
2023-03-06T03:16:08.639Z,27.08
2023-03-06T03:18:35.742Z,28.10
2023-03-06T03:21:06.475Z,27.77
2023-03-06T03:23:33.227Z,27.85
2023-03-06T03:26:11.832Z,25.17
2023-03-06T03:28:38.510Z,27.60
2023-03-06T03:31:07.206Z,31.15
2023-03-06T03:33:34.004Z,30.88
2023-03-06T03:36:03.366Z,32.10
2023-03-06T03:38:30.404Z,31.63
2023-03-06T03:40:56.910Z,25.48
2023-03-06T03:43:23.607Z,29.90
2023-03-06T03:45:50.176Z,29.08
2023-03-06T03:48:16.703Z,33.55
2023-03-06T03:50:43.236Z,29.80
2023-03-06T03:53:10.084Z,29.23
2023-03-06T03:55:36.897Z,28.00
2023-03-06T03:58:03.468Z,25.42
2023-03-06T04:00:29.989Z,27.05
2023-03-06T04:02:56.589Z,23.60
2023-03-06T04:05:23.390Z,26.17
2023-03-06T04:07:49.945Z,26.85
2023-03-06T04:10:16.533Z,30.45
2023-03-06T04:12:43.153Z,24.52
2023-03-06T04:15:10.050Z,25.95
2023-03-06T04:17:36.686Z,30.35
2023-03-06T04:20:04.783Z,25.88
2023-03-06T04:22:31.371Z,24.88
2023-03-06T04:24:57.913Z,26.67
2023-03-06T04:27:24.454Z,29.27
2023-03-06T04:29:51.031Z,27.55
2023-03-06T04:32:19.691Z,31.67
2023-03-06T04:34:47.920Z,25.23
2023-03-06T04:37:20.536Z,32.80
2023-03-06T04:39:47.380Z,33.60
2023-03-06T04:42:14.003Z,28.50
2023-03-06T04:44:40.641Z,27.00
2023-03-06T04:47:07.469Z,27.50
2023-03-06T04:49:34.643Z,29.58
2023-03-06T04:52:01.308Z,27.08
2023-03-06T04:54:27.894Z,23.17
2023-03-06T04:56:54.431Z,26.65
2023-03-06T04:59:21.016Z,24.45
2023-03-06T05:01:47.642Z,26.05
2023-03-06T05:04:14.251Z,25.77
2023-03-06T05:06:40.963Z,25.30
2023-03-06T05:09:07.798Z,29.17
2023-03-06T05:11:34.367Z,24.63
2023-03-06T05:14:00.903Z,24.25
2023-03-06T05:16:27.566Z,19.52
2023-03-06T05:18:54.144Z,26.45
2023-03-06T05:21:20.776Z,24.63
2023-03-06T05:23:47.475Z,28.30
2023-03-06T05:26:15.096Z,23.45
2023-03-06T05:28:41.814Z,23.30
2023-03-06T05:31:08.563Z,25.58
2023-03-06T05:33:36.083Z,22.83
2023-03-06T05:36:03.623Z,25.50
2023-03-06T05:38:30.352Z,27.40
2023-03-06T05:40:56.906Z,25.70
2023-03-06T05:43:23.557Z,26.45
2023-03-06T05:45:53.015Z,24.95
2023-03-06T05:48:19.708Z,25.83
2023-03-06T05:50:46.215Z,23.20
2023-03-06T05:53:12.755Z,27.27
2023-03-06T05:55:39.356Z,27.20
2023-03-06T05:58:05.940Z,27.38
2023-03-06T06:00:32.457Z,29.63
2023-03-06T06:03:02.037Z,25.27
2023-03-06T06:05:28.586Z,25.17
2023-03-06T06:07:55.138Z,27.80
2023-03-06T06:10:21.664Z,28.58
2023-03-06T06:12:48.250Z,25.60
2023-03-06T06:15:15.282Z,28.90
2023-03-06T06:17:41.800Z,32.55
2023-03-06T06:20:09.126Z,29.30
2023-03-06T06:22:37.863Z,26.75
2023-03-06T06:25:06.472Z,32.88
2023-03-06T06:27:33.114Z,29.63
2023-03-06T06:29:59.650Z,33.58
2023-03-06T06:32:26.262Z,30.63
2023-03-06T06:34:52.851Z,34.22
2023-03-06T06:37:19.466Z,30.05
2023-03-06T06:39:46.002Z,37.28
2023-03-06T06:42:30.481Z,35.72
2023-03-06T06:44:59.203Z,28.60
2023-03-06T06:47:26.176Z,30.45
2023-03-06T06:49:54.475Z,30.95
2023-03-06T06:52:21.937Z,31.92
2023-03-06T06:54:48.515Z,27.85
2023-03-06T06:57:15.918Z,30.17
2023-03-06T06:59:42.605Z,29.65
2023-03-06T07:02:15.553Z,33.25
2023-03-06T07:04:56.252Z,27.25
2023-03-06T07:07:29.494Z,30.40
2023-03-06T07:09:56.282Z,34.20
2023-03-06T07:12:22.915Z,29.27
2023-03-06T07:14:49.427Z,29.17
2023-03-06T07:17:16.002Z,30.33
2023-03-06T07:19:42.531Z,33.38
2023-03-06T07:22:09.219Z,29.77
2023-03-06T07:24:35.795Z,31.08
2023-03-06T07:27:02.337Z,27.08
2023-03-06T07:29:29.279Z,32.05
2023-03-06T07:31:55.929Z,31.90
2023-03-06T07:34:22.567Z,29.33
2023-03-06T07:36:50.633Z,32.63
2023-03-06T07:39:17.411Z,32.65
2023-03-06T07:41:44.025Z,31.23
2023-03-06T07:44:10.750Z,30.42
2023-03-06T07:46:37.406Z,28.23
2023-03-06T07:49:04.001Z,30.10
2023-03-06T07:51:30.591Z,27.50
2023-03-06T07:53:57.169Z,30.05
2023-03-06T07:56:23.777Z,31.65
2023-03-06T07:58:50.291Z,34.70
2023-03-06T08:01:19.937Z,30.90
2023-03-06T08:03:47.528Z,29.17
2023-03-06T08:06:20.626Z,31.25
2023-03-06T08:08:48.109Z,30.95
2023-03-06T08:11:16.955Z,27.38
2023-03-06T08:13:44.327Z,34.03
2023-03-06T08:16:11.450Z,40.92
2023-03-06T08:18:41.184Z,32.95
2023-03-06T08:21:12.177Z,33.97
2023-03-06T08:23:39.872Z,31.40
2023-03-06T08:26:18.112Z,33.58
2023-03-06T08:28:44.887Z,36.15
2023-03-06T08:31:29.330Z,29.95
2023-03-06T08:33:58.014Z,30.23
2023-03-06T08:36:25.006Z,33.47
2023-03-06T08:38:51.923Z,30.08
2023-03-06T08:41:20.270Z,29.45
2023-03-06T08:43:47.184Z,33.67
2023-03-06T08:46:14.115Z,31.60
2023-03-06T08:48:41.037Z,29.58
2023-03-06T08:51:10.878Z,26.10
2023-03-06T08:53:43.001Z,33.80
2023-03-06T08:56:25.543Z,28.95
2023-03-06T08:58:53.072Z,30.05
2023-03-06T09:01:25.005Z,30.42
2023-03-06T09:03:54.209Z,28.92
2023-03-06T09:06:20.969Z,28.25
2023-03-06T09:08:47.533Z,32.53
2023-03-06T09:11:15.557Z,32.40
2023-03-06T09:13:42.947Z,34.20
2023-03-06T09:16:11.105Z,30.73
2023-03-06T09:18:37.893Z,29.23
2023-03-06T09:21:05.932Z,32.97
2023-03-06T09:23:33.290Z,31.60
2023-03-06T09:26:00.569Z,33.72
2023-03-06T09:28:27.205Z,33.33
2023-03-06T09:30:54.292Z,34.30
2023-03-06T09:33:21.405Z,32.08
2023-03-06T09:35:53.857Z,31.02
2023-03-06T09:38:23.053Z,28.40
2023-03-06T09:40:58.257Z,28.55
2023-03-06T09:43:45.260Z,31.40
2023-03-06T09:46:44.416Z,32.53
2023-03-06T09:49:43.586Z,29.08
2023-03-06T09:52:29.647Z,31.60
2023-03-06T09:55:18.450Z,29.95
2023-03-06T09:58:13.358Z,29.33
2023-03-06T10:00:55.802Z,33.28
2023-03-06T10:03:38.710Z,34.17
2023-03-06T10:06:19.988Z,35.20
2023-03-06T10:08:48.654Z,30.17
2023-03-06T10:11:22.178Z,28.27
2023-03-06T10:13:54.483Z,29.25
2023-03-06T10:16:31.250Z,27.48
2023-03-06T10:19:03.907Z,30.27
2023-03-06T10:21:46.605Z,27.45
2023-03-06T10:24:18.772Z,28.55
2023-03-06T10:26:54.443Z,34.40
2023-03-06T10:29:56.289Z,31.88
2023-03-06T10:32:48.256Z,33.88
2023-03-06T10:35:23.730Z,44.80
2023-03-06T10:37:50.402Z,33.28
2023-03-06T10:40:21.631Z,32.13
2023-03-06T10:42:49.523Z,26.52
2023-03-06T10:45:18.783Z,28.95
2023-03-06T10:47:46.001Z,30.45
2023-03-06T10:50:30.454Z,28.23
2023-03-06T10:53:15.270Z,29.10
2023-03-06T10:55:54.999Z,26.75
2023-03-06T10:58:27.715Z,29.63
2023-03-06T11:01:21.602Z,24.55
2023-03-06T11:03:48.527Z,23.10
2023-03-06T11:06:30.376Z,23.80
2023-03-06T11:09:15.266Z,23.77
2023-03-06T11:11:41.872Z,26.50
2023-03-06T11:14:16.974Z,23.58
2023-03-06T11:16:54.240Z,26.45
2023-03-06T11:19:27.887Z,22.05
2023-03-06T11:22:04.327Z,28.55
2023-03-06T11:24:45.825Z,22.85
2023-03-06T11:27:34.320Z,26.20
2023-03-06T11:30:07.561Z,26.45
2023-03-06T11:32:43.982Z,23.10
2023-03-06T11:35:15.799Z,23.77
2023-03-06T11:38:06.681Z,25.60
2023-03-06T11:40:59.869Z,23.48
2023-03-06T11:43:46.697Z,26.40
2023-03-06T11:46:31.729Z,23.13
2023-03-06T11:49:25.971Z,25.88
2023-03-06T11:51:56.452Z,24.95
2023-03-06T11:54:23.382Z,27.63
2023-03-06T11:56:58.094Z,27.42
2023-03-06T11:59:31.199Z,26.02
2023-03-06T12:02:39.136Z,26.23
2023-03-06T12:05:39.941Z,26.33
2023-03-06T12:08:19.797Z,22.70
2023-03-06T12:10:51.976Z,40.55
2023-03-06T12:13:44.959Z,26.73
2023-03-06T12:16:39.021Z,27.55
2023-03-06T12:19:22.470Z,26.73
2023-03-06T12:22:14.145Z,22.05
2023-03-06T12:25:10.356Z,24.75
2023-03-06T12:28:02.930Z,25.05
2023-03-06T12:31:06.891Z,23.25
2023-03-06T12:34:06.564Z,21.80
2023-03-06T12:37:10.506Z,24.52
2023-03-06T12:39:36.991Z,21.75
2023-03-06T12:42:11.479Z,22.25
2023-03-06T12:45:03.061Z,19.90
2023-03-06T12:47:33.231Z,19.15
2023-03-06T12:50:08.154Z,21.20
2023-03-06T12:52:35.383Z,18.50
2023-03-06T12:55:07.419Z,19.80
2023-03-06T12:57:34.052Z,17.52
2023-03-06T13:00:00.652Z,16.92
2023-03-06T13:02:29.968Z,19.02
2023-03-06T13:05:10.440Z,17.60
2023-03-06T13:07:57.269Z,17.77
2023-03-06T13:10:31.537Z,19.08
2023-03-06T13:13:23.681Z,18.15
2023-03-06T13:16:21.344Z,22.85
2023-03-06T13:18:57.783Z,16.70
2023-03-06T13:21:42.777Z,18.38
2023-03-06T13:24:17.136Z,18.92
2023-03-06T13:26:43.638Z,19.25
2023-03-06T13:29:39.751Z,18.05
2023-03-06T13:32:17.243Z,17.42
2023-03-06T13:34:49.961Z,16.75
2023-03-06T13:37:20.018Z,18.95
2023-03-06T13:39:55.509Z,15.77
2023-03-06T13:42:31.577Z,16.08
2023-03-06T13:45:29.738Z,16.13
2023-03-06T13:48:24.487Z,13.63
2023-03-06T13:50:47.410Z,17.67
2023-03-06T13:53:35.170Z,16.50
2023-03-06T13:56:13.640Z,16.30
2023-03-06T13:59:13.799Z,17.10
2023-03-06T14:02:31.500Z,15.67
2023-03-06T14:04:59.711Z,19.55
2023-03-06T14:07:30.769Z,14.07
2023-03-06T14:12:40.680Z,13.18
2023-03-06T14:15:23.798Z,16.42
2023-03-06T14:17:58.887Z,14.43
2023-03-06T14:20:46.049Z,17.60
2023-03-06T14:23:21.636Z,13.52
2023-03-06T14:25:54.891Z,15.45
2023-03-06T14:28:27.492Z,17.05
2023-03-06T14:30:56.603Z,15.55
2023-03-06T14:33:34.963Z,16.80
2023-03-06T14:36:04.729Z,17.17
2023-03-06T14:38:38.701Z,16.58
2023-03-06T14:41:06.097Z,14.55
2023-03-06T14:43:32.812Z,16.35
2023-03-06T14:46:06.312Z,15.00
2023-03-06T14:48:42.288Z,16.42
2023-03-06T14:51:17.470Z,15.73
2023-03-06T14:53:45.691Z,13.65
2023-03-06T14:56:17.660Z,15.82
2023-03-06T14:58:55.411Z,16.05
2023-03-06T15:01:46.273Z,16.42
2023-03-06T15:04:55.120Z,14.88
2023-03-06T15:07:28.595Z,14.13
2023-03-06T15:09:55.694Z,14.70
2023-03-06T15:12:30.931Z,14.18
2023-03-06T15:15:00.551Z,14.00
2023-03-06T15:17:27.298Z,16.92
2023-03-06T15:19:56.548Z,16.33
2023-03-06T15:22:31.811Z,13.75
2023-03-06T15:25:20.986Z,12.90
2023-03-06T15:27:50.573Z,13.30
2023-03-06T15:30:23.343Z,15.60
2023-03-06T15:32:49.976Z,15.68
2023-03-06T15:35:31.773Z,14.15
2023-03-06T15:37:59.444Z,13.90
2023-03-06T15:40:29.473Z,13.52
2023-03-06T15:42:56.589Z,16.45
2023-03-06T15:45:24.874Z,13.00
2023-03-06T15:47:53.246Z,12.63
2023-03-06T15:50:29.106Z,14.65
2023-03-06T15:52:55.853Z,15.80
2023-03-06T15:55:25.926Z,13.18
2023-03-06T15:58:02.723Z,14.07
2023-03-06T16:00:35.024Z,13.88
2023-03-06T16:03:02.088Z,16.52
2023-03-06T16:05:29.706Z,12.85
2023-03-06T16:07:56.416Z,18.23
2023-03-06T16:10:25.722Z,14.70
2023-03-06T16:13:04.428Z,15.32
2023-03-06T16:15:36.202Z,13.52
2023-03-06T16:18:02.753Z,13.32
2023-03-06T16:20:29.776Z,13.05
2023-03-06T16:22:56.859Z,15.02
2023-03-06T16:25:25.978Z,14.52
2023-03-06T16:27:58.738Z,16.20
2023-03-06T16:30:33.688Z,14.30
2023-03-06T16:33:00.259Z,12.20
2023-03-06T16:35:27.575Z,14.98
2023-03-06T16:37:54.306Z,14.60
2023-03-06T16:40:29.233Z,17.33
2023-03-06T16:42:56.284Z,13.88
2023-03-06T16:45:23.532Z,18.08
2023-03-06T16:47:50.328Z,16.20
2023-03-06T16:50:35.274Z,23.30
2023-03-06T16:53:02.100Z,19.02
2023-03-06T16:55:28.726Z,14.82
2023-03-06T16:57:55.435Z,13.60
2023-03-06T17:00:24.606Z,14.68
2023-03-06T17:02:52.250Z,15.23
2023-03-06T17:05:19.829Z,16.27
2023-03-06T17:07:46.564Z,13.65
2023-03-06T17:10:15.941Z,14.23
2023-03-06T17:12:43.397Z,16.80
2023-03-06T17:15:11.184Z,17.50
2023-03-06T17:17:38.258Z,13.63
2023-03-06T17:20:07.967Z,15.23
2023-03-06T17:22:35.784Z,19.23
2023-03-06T17:25:04.697Z,13.05
2023-03-06T17:27:31.526Z,15.00
2023-03-06T17:29:58.349Z,14.73
2023-03-06T17:32:26.604Z,17.02
2023-03-06T17:34:53.622Z,16.63
2023-03-06T17:37:20.719Z,17.80
2023-03-06T17:39:47.271Z,15.90
2023-03-06T17:42:13.879Z,16.02
2023-03-06T17:44:40.502Z,16.02
2023-03-06T17:47:07.148Z,17.10
2023-03-06T17:49:33.716Z,15.82
2023-03-06T17:52:02.606Z,17.55
2023-03-06T17:54:30.004Z,18.45
2023-03-06T17:57:00.881Z,19.80
2023-03-06T17:59:28.006Z,17.40
2023-03-06T18:01:58.619Z,17.02
2023-03-06T18:04:25.710Z,16.88
2023-03-06T18:06:52.466Z,16.70
2023-03-06T18:09:19.134Z,18.00
2023-03-06T18:11:45.669Z,19.98
2023-03-06T18:14:12.452Z,16.55
2023-03-06T18:16:39.108Z,16.38
2023-03-06T18:19:05.688Z,14.52
2023-03-06T18:21:32.324Z,13.93
2023-03-06T18:23:58.895Z,17.42
2023-03-06T18:26:27.676Z,18.08
2023-03-06T18:29:01.225Z,16.58
2023-03-06T18:31:31.752Z,18.23
2023-03-06T18:34:01.490Z,18.17
2023-03-06T18:36:30.985Z,16.75
2023-03-06T18:38:58.582Z,18.25
2023-03-06T18:41:25.146Z,15.82
2023-03-06T18:43:53.726Z,15.48
2023-03-06T18:46:20.578Z,17.77
2023-03-06T18:48:47.189Z,17.67
2023-03-06T18:51:15.357Z,15.93
2023-03-06T18:53:42.112Z,16.48
2023-03-06T18:56:14.143Z,16.00
2023-03-06T18:58:40.723Z,20.52
2023-03-06T19:01:07.701Z,17.20
2023-03-06T19:03:34.418Z,17.35
2023-03-06T19:06:08.293Z,18.05
2023-03-06T19:08:36.101Z,15.65
2023-03-06T19:11:08.276Z,17.98
2023-03-06T19:13:35.029Z,18.48
2023-03-06T19:16:01.886Z,19.65
2023-03-06T19:18:29.540Z,16.60
2023-03-06T19:21:17.288Z,15.38
2023-03-06T19:23:44.449Z,17.70
2023-03-06T19:26:11.653Z,17.15
2023-03-06T19:28:40.298Z,16.67
2023-03-06T19:31:19.883Z,17.58
2023-03-06T19:33:48.603Z,19.95
2023-03-06T19:36:17.033Z,17.88
2023-03-06T19:38:43.588Z,18.08
2023-03-06T19:41:13.678Z,17.65
2023-03-06T19:43:43.671Z,17.73
2023-03-06T19:46:14.184Z,16.42
2023-03-06T19:48:43.766Z,27.17
2023-03-06T19:51:11.177Z,19.67
2023-03-06T19:53:39.501Z,19.85
2023-03-06T19:56:13.025Z,15.82
2023-03-06T19:58:40.557Z,17.00
2023-03-06T20:01:10.689Z,17.65
2023-03-06T20:03:38.234Z,16.40
2023-03-06T20:06:09.081Z,17.27
2023-03-06T20:08:36.616Z,18.70
2023-03-06T20:11:03.952Z,17.17
2023-03-06T20:13:30.837Z,19.23
2023-03-06T20:16:01.486Z,18.55
2023-03-06T20:18:28.075Z,17.98
2023-03-06T20:20:59.697Z,19.08
2023-03-06T20:23:26.955Z,16.30
2023-03-06T20:25:53.579Z,17.17
2023-03-06T20:28:20.305Z,18.42
2023-03-06T20:30:46.877Z,19.02
2023-03-06T20:33:15.176Z,22.42
2023-03-06T20:35:42.950Z,18.42
2023-03-06T20:38:10.469Z,17.98
2023-03-06T20:40:42.228Z,21.23
2023-03-06T20:43:08.939Z,18.98
2023-03-06T20:45:35.730Z,20.55
2023-03-06T20:48:02.312Z,18.63
2023-03-06T20:50:28.893Z,16.33
2023-03-06T20:52:58.308Z,20.55
2023-03-06T20:55:25.069Z,17.92
2023-03-06T20:57:52.494Z,17.45
2023-03-06T21:00:20.849Z,18.42
2023-03-06T21:02:47.461Z,16.13
2023-03-06T21:05:14.075Z,22.15
2023-03-06T21:07:40.768Z,22.05
2023-03-06T21:10:08.364Z,14.93
2023-03-06T21:12:34.958Z,16.83
2023-03-06T21:15:01.533Z,18.85
2023-03-06T21:17:30.005Z,19.75
2023-03-06T21:19:57.502Z,24.10
2023-03-06T21:22:24.228Z,21.30
2023-03-06T21:24:50.789Z,18.48
2023-03-06T21:27:17.300Z,18.67
2023-03-06T21:29:45.045Z,19.40
2023-03-06T21:32:11.886Z,18.75
2023-03-06T21:34:38.437Z,20.70
2023-03-06T21:37:05.010Z,21.08
2023-03-06T21:39:31.545Z,19.85
2023-03-06T21:41:58.071Z,22.00
2023-03-06T21:44:24.703Z,20.55
2023-03-06T21:46:51.236Z,18.92
2023-03-06T21:49:18.097Z,18.02
2023-03-06T21:51:44.652Z,23.90
2023-03-06T21:54:12.913Z,16.67
2023-03-06T21:56:39.442Z,21.08
2023-03-06T21:59:05.968Z,19.08
2023-03-06T22:01:32.758Z,22.17
2023-03-06T22:04:00.134Z,19.63
2023-03-06T22:06:28.721Z,26.50
2023-03-06T22:08:56.161Z,22.48
2023-03-06T22:11:24.221Z,22.05
2023-03-06T22:13:53.150Z,19.85
2023-03-06T22:16:20.737Z,19.42
2023-03-06T22:18:49.548Z,19.95
2023-03-06T22:21:18.607Z,19.80
2023-03-06T22:23:52.703Z,21.17
2023-03-06T22:26:20.213Z,21.40
2023-03-06T22:28:47.073Z,16.67
2023-03-06T22:31:23.924Z,19.40
2023-03-06T22:33:52.218Z,24.27
2023-03-06T22:36:19.226Z,21.52
2023-03-06T22:38:47.711Z,21.83
2023-03-06T22:41:16.499Z,19.48
2023-03-06T22:43:43.288Z,18.45
2023-03-06T22:46:15.146Z,18.88
2023-03-06T22:48:42.514Z,22.17
2023-03-06T22:51:14.960Z,21.02
2023-03-06T22:53:41.878Z,20.83
2023-03-06T22:56:11.553Z,21.10
2023-03-06T22:58:38.914Z,22.02
2023-03-06T23:01:16.097Z,23.67
2023-03-06T23:03:45.174Z,23.20
2023-03-06T23:06:17.857Z,21.10
2023-03-06T23:08:47.951Z,19.52
2023-03-06T23:11:16.740Z,18.20
2023-03-06T23:13:43.392Z,21.35
2023-03-06T23:16:10.275Z,23.17
2023-03-06T23:18:39.156Z,20.25
2023-03-06T23:21:10.871Z,21.60
2023-03-06T23:23:38.763Z,21.45
2023-03-06T23:26:07.148Z,23.63
2023-03-06T23:28:37.496Z,23.90
2023-03-06T23:31:15.694Z,21.02
2023-03-06T23:33:42.515Z,19.85
2023-03-06T23:36:11.838Z,19.90
2023-03-06T23:38:38.715Z,22.73
2023-03-06T23:41:11.805Z,20.20
2023-03-06T23:43:38.512Z,23.92
2023-03-06T23:46:06.965Z,20.45
2023-03-06T23:48:35.591Z,21.15
2023-03-06T23:51:19.794Z,21.25
2023-03-06T23:53:47.524Z,19.73
2023-03-06T23:56:14.461Z,20.52
2023-03-06T23:58:41.058Z,19.58
